sensor_id;sensor_type;location;lat;lon;timestamp;temperature;humidity
69901;DHT22;57183;50.930;5.406;2023-04-25T00:00:36;9.40;99.90
69901;DHT22;57183;50.930;5.406;2023-04-25T00:03:01;9.50;99.90
69901;DHT22;57183;50.930;5.406;2023-04-25T00:05:27;9.50;99.90
69901;DHT22;57183;50.930;5.406;2023-04-25T00:07:53;9.50;99.90
69901;DHT22;57183;50.930;5.406;2023-04-25T00:10:20;9.60;99.90
69901;DHT22;57183;50.930;5.406;2023-04-25T00:12:46;9.60;99.90
69901;DHT22;57183;50.930;5.406;2023-04-25T00:15:11;9.70;99.90
69901;DHT22;57183;50.930;5.406;2023-04-25T00:17:37;9.60;99.90
69901;DHT22;57183;50.930;5.406;2023-04-25T00:20:04;9.70;99.90
69901;DHT22;57183;50.930;5.406;2023-04-25T00:22:36;9.70;99.90
69901;DHT22;57183;50.930;5.406;2023-04-25T00:25:06;9.70;99.90
69901;DHT22;57183;50.930;5.406;2023-04-25T00:27:32;9.80;99.90
69901;DHT22;57183;50.930;5.406;2023-04-25T00:29:58;9.80;99.90
69901;DHT22;57183;50.930;5.406;2023-04-25T00:32:23;9.90;99.90
69901;DHT22;57183;50.930;5.406;2023-04-25T00:34:49;9.80;99.90
69901;DHT22;57183;50.930;5.406;2023-04-25T00:37:15;9.70;99.90
69901;DHT22;57183;50.930;5.406;2023-04-25T00:39:41;9.70;99.90
69901;DHT22;57183;50.930;5.406;2023-04-25T00:42:07;9.80;99.90
69901;DHT22;57183;50.930;5.406;2023-04-25T00:44:34;9.90;99.90
69901;DHT22;57183;50.930;5.406;2023-04-25T00:47:01;9.80;99.90
69901;DHT22;57183;50.930;5.406;2023-04-25T00:49:27;9.70;99.90
69901;DHT22;57183;50.930;5.406;2023-04-25T00:51:53;9.70;99.90
69901;DHT22;57183;50.930;5.406;2023-04-25T00:54:20;9.90;99.90
69901;DHT22;57183;50.930;5.406;2023-04-25T00:56:45;9.80;99.90
69901;DHT22;57183;50.930;5.406;2023-04-25T00:59:11;9.70;99.90
69901;DHT22;57183;50.930;5.406;2023-04-25T01:01:38;9.70;99.90
69901;DHT22;57183;50.930;5.406;2023-04-25T01:04:04;9.70;99.90
69901;DHT22;57183;50.930;5.406;2023-04-25T01:06:30;9.80;99.90
69901;DHT22;57183;50.930;5.406;2023-04-25T01:08:57;9.60;99.90
69901;DHT22;57183;50.930;5.406;2023-04-25T01:11:24;9.60;99.90
69901;DHT22;57183;50.930;5.406;2023-04-25T01:13:51;9.60;99.90
69901;DHT22;57183;50.930;5.406;2023-04-25T01:16:16;9.50;99.90
69901;DHT22;57183;50.930;5.406;2023-04-25T01:18:42;9.60;99.90
69901;DHT22;57183;50.930;5.406;2023-04-25T01:21:10;9.60;99.90
69901;DHT22;57183;50.930;5.406;2023-04-25T01:23:39;9.50;99.90
69901;DHT22;57183;50.930;5.406;2023-04-25T01:26:06;9.30;99.90
69901;DHT22;57183;50.930;5.406;2023-04-25T01:28:33;9.20;99.90
69901;DHT22;57183;50.930;5.406;2023-04-25T01:31:00;9.20;99.90
69901;DHT22;57183;50.930;5.406;2023-04-25T01:33:25;9.30;99.90
69901;DHT22;57183;50.930;5.406;2023-04-25T01:35:51;9.50;99.90
69901;DHT22;57183;50.930;5.406;2023-04-25T01:38:17;9.30;99.90
69901;DHT22;57183;50.930;5.406;2023-04-25T01:40:44;9.30;99.90
69901;DHT22;57183;50.930;5.406;2023-04-25T01:43:10;9.30;99.90
69901;DHT22;57183;50.930;5.406;2023-04-25T01:45:41;9.30;99.90
69901;DHT22;57183;50.930;5.406;2023-04-25T01:48:12;9.20;99.90
69901;DHT22;57183;50.930;5.406;2023-04-25T01:50:39;9.20;99.90
69901;DHT22;57183;50.930;5.406;2023-04-25T01:53:05;9.40;99.90
69901;DHT22;57183;50.930;5.406;2023-04-25T01:55:30;9.30;99.90
69901;DHT22;57183;50.930;5.406;2023-04-25T01:57:56;9.30;99.90
69901;DHT22;57183;50.930;5.406;2023-04-25T02:00:22;9.30;99.90
69901;DHT22;57183;50.930;5.406;2023-04-25T02:02:48;9.40;99.90
69901;DHT22;57183;50.930;5.406;2023-04-25T02:05:16;9.40;99.90
69901;DHT22;57183;50.930;5.406;2023-04-25T02:07:42;9.30;99.90
69901;DHT22;57183;50.930;5.406;2023-04-25T02:10:08;9.30;99.90
69901;DHT22;57183;50.930;5.406;2023-04-25T02:12:36;9.20;99.90
69901;DHT22;57183;50.930;5.406;2023-04-25T02:15:02;9.10;99.90
69901;DHT22;57183;50.930;5.406;2023-04-25T02:17:28;8.90;99.90
69901;DHT22;57183;50.930;5.406;2023-04-25T02:19:53;9.00;99.90
69901;DHT22;57183;50.930;5.406;2023-04-25T02:22:19;9.00;99.90
69901;DHT22;57183;50.930;5.406;2023-04-25T02:24:46;9.00;99.90
69901;DHT22;57183;50.930;5.406;2023-04-25T02:27:12;9.00;99.90
69901;DHT22;57183;50.930;5.406;2023-04-25T02:29:38;9.10;99.90
69901;DHT22;57183;50.930;5.406;2023-04-25T02:32:04;9.10;99.90
69901;DHT22;57183;50.930;5.406;2023-04-25T02:34:29;9.00;99.90
69901;DHT22;57183;50.930;5.406;2023-04-25T02:36:55;9.00;99.90
69901;DHT22;57183;50.930;5.406;2023-04-25T02:39:24;9.00;99.90
69901;DHT22;57183;50.930;5.406;2023-04-25T02:41:51;9.10;99.90
69901;DHT22;57183;50.930;5.406;2023-04-25T02:44:17;9.00;99.90
69901;DHT22;57183;50.930;5.406;2023-04-25T02:46:42;9.10;99.90
69901;DHT22;57183;50.930;5.406;2023-04-25T02:49:08;9.00;99.90
69901;DHT22;57183;50.930;5.406;2023-04-25T02:51:34;9.10;99.90
69901;DHT22;57183;50.930;5.406;2023-04-25T02:53:59;9.10;99.90
69901;DHT22;57183;50.930;5.406;2023-04-25T02:56:26;9.10;99.90
69901;DHT22;57183;50.930;5.406;2023-04-25T02:58:52;9.00;99.90
69901;DHT22;57183;50.930;5.406;2023-04-25T03:01:18;9.00;99.90
69901;DHT22;57183;50.930;5.406;2023-04-25T03:03:44;8.90;99.90
69901;DHT22;57183;50.930;5.406;2023-04-25T03:06:09;9.00;99.90
69901;DHT22;57183;50.930;5.406;2023-04-25T03:08:35;9.00;99.90
69901;DHT22;57183;50.930;5.406;2023-04-25T03:11:01;9.00;99.90
69901;DHT22;57183;50.930;5.406;2023-04-25T03:13:27;9.00;99.90
69901;DHT22;57183;50.930;5.406;2023-04-25T03:15:54;9.00;99.90
69901;DHT22;57183;50.930;5.406;2023-04-25T03:18:20;9.10;99.90
69901;DHT22;57183;50.930;5.406;2023-04-25T03:20:46;9.00;99.90
69901;DHT22;57183;50.930;5.406;2023-04-25T03:23:12;9.00;99.90
69901;DHT22;57183;50.930;5.406;2023-04-25T03:25:37;9.00;99.90
69901;DHT22;57183;50.930;5.406;2023-04-25T03:28:03;9.00;99.90
69901;DHT22;57183;50.930;5.406;2023-04-25T03:30:29;8.90;99.90
69901;DHT22;57183;50.930;5.406;2023-04-25T03:32:54;8.90;99.90
69901;DHT22;57183;50.930;5.406;2023-04-25T03:35:20;8.80;99.90
69901;DHT22;57183;50.930;5.406;2023-04-25T03:37:46;8.90;99.90
69901;DHT22;57183;50.930;5.406;2023-04-25T03:40:12;8.90;99.90
69901;DHT22;57183;50.930;5.406;2023-04-25T03:42:38;8.80;99.90
69901;DHT22;57183;50.930;5.406;2023-04-25T03:45:04;8.90;99.90
69901;DHT22;57183;50.930;5.406;2023-04-25T03:47:29;9.00;99.90
69901;DHT22;57183;50.930;5.406;2023-04-25T03:49:55;8.80;99.90
69901;DHT22;57183;50.930;5.406;2023-04-25T03:52:21;8.60;99.90
69901;DHT22;57183;50.930;5.406;2023-04-25T03:54:46;8.80;99.90
69901;DHT22;57183;50.930;5.406;2023-04-25T03:57:12;8.80;99.90
69901;DHT22;57183;50.930;5.406;2023-04-25T03:59:38;8.90;99.90
69901;DHT22;57183;50.930;5.406;2023-04-25T04:02:04;8.80;99.90
69901;DHT22;57183;50.930;5.406;2023-04-25T04:04:29;8.90;99.90
69901;DHT22;57183;50.930;5.406;2023-04-25T04:06:55;8.80;99.90
69901;DHT22;57183;50.930;5.406;2023-04-25T04:09:21;8.70;99.90
69901;DHT22;57183;50.930;5.406;2023-04-25T04:11:47;8.40;99.90
69901;DHT22;57183;50.930;5.406;2023-04-25T04:14:13;8.50;99.90
69901;DHT22;57183;50.930;5.406;2023-04-25T04:16:38;8.60;99.90
69901;DHT22;57183;50.930;5.406;2023-04-25T04:19:04;8.50;99.90
69901;DHT22;57183;50.930;5.406;2023-04-25T04:21:30;8.30;99.90
69901;DHT22;57183;50.930;5.406;2023-04-25T04:23:55;8.20;99.90
69901;DHT22;57183;50.930;5.406;2023-04-25T04:26:23;8.10;99.90
69901;DHT22;57183;50.930;5.406;2023-04-25T04:28:52;8.20;99.90
69901;DHT22;57183;50.930;5.406;2023-04-25T04:31:22;8.30;99.90
69901;DHT22;57183;50.930;5.406;2023-04-25T04:33:48;8.30;99.90
69901;DHT22;57183;50.930;5.406;2023-04-25T04:36:13;8.30;99.90
69901;DHT22;57183;50.930;5.406;2023-04-25T04:38:39;8.10;99.90
69901;DHT22;57183;50.930;5.406;2023-04-25T04:41:08;8.10;99.90
69901;DHT22;57183;50.930;5.406;2023-04-25T04:43:35;8.00;99.90
69901;DHT22;57183;50.930;5.406;2023-04-25T04:46:02;7.90;99.90
69901;DHT22;57183;50.930;5.406;2023-04-25T04:48:35;8.10;99.90
69901;DHT22;57183;50.930;5.406;2023-04-25T04:51:00;8.10;99.90
69901;DHT22;57183;50.930;5.406;2023-04-25T04:53:26;8.20;99.90
69901;DHT22;57183;50.930;5.406;2023-04-25T04:55:52;8.30;99.90
69901;DHT22;57183;50.930;5.406;2023-04-25T04:58:18;8.40;99.90
69901;DHT22;57183;50.930;5.406;2023-04-25T05:00:45;8.40;99.90
69901;DHT22;57183;50.930;5.406;2023-04-25T05:03:11;8.40;99.90
69901;DHT22;57183;50.930;5.406;2023-04-25T05:05:37;8.50;99.90
69901;DHT22;57183;50.930;5.406;2023-04-25T05:08:06;8.60;99.90
69901;DHT22;57183;50.930;5.406;2023-04-25T05:10:31;8.70;99.90
69901;DHT22;57183;50.930;5.406;2023-04-25T05:12:57;8.70;99.90
69901;DHT22;57183;50.930;5.406;2023-04-25T05:15:23;8.80;99.90
69901;DHT22;57183;50.930;5.406;2023-04-25T05:17:48;8.80;99.90
69901;DHT22;57183;50.930;5.406;2023-04-25T05:20:14;8.90;99.90
69901;DHT22;57183;50.930;5.406;2023-04-25T05:22:40;9.00;99.90
69901;DHT22;57183;50.930;5.406;2023-04-25T05:25:08;9.00;99.90
69901;DHT22;57183;50.930;5.406;2023-04-25T05:27:34;9.00;99.90
69901;DHT22;57183;50.930;5.406;2023-04-25T05:29:59;8.90;99.90
69901;DHT22;57183;50.930;5.406;2023-04-25T05:32:25;8.90;99.90
69901;DHT22;57183;50.930;5.406;2023-04-25T05:34:51;9.00;99.90
69901;DHT22;57183;50.930;5.406;2023-04-25T05:37:17;8.90;99.90
69901;DHT22;57183;50.930;5.406;2023-04-25T05:39:43;8.70;99.90
69901;DHT22;57183;50.930;5.406;2023-04-25T05:42:08;8.80;99.90
69901;DHT22;57183;50.930;5.406;2023-04-25T05:44:34;8.90;99.90
69901;DHT22;57183;50.930;5.406;2023-04-25T05:47:00;8.90;99.90
69901;DHT22;57183;50.930;5.406;2023-04-25T05:49:25;9.00;99.90
69901;DHT22;57183;50.930;5.406;2023-04-25T05:51:51;9.00;99.90
69901;DHT22;57183;50.930;5.406;2023-04-25T05:54:17;8.80;99.90
69901;DHT22;57183;50.930;5.406;2023-04-25T05:56:42;8.80;99.90
69901;DHT22;57183;50.930;5.406;2023-04-25T05:59:08;8.80;99.90
69901;DHT22;57183;50.930;5.406;2023-04-25T06:01:34;8.70;99.90
69901;DHT22;57183;50.930;5.406;2023-04-25T06:03:59;8.80;99.90
69901;DHT22;57183;50.930;5.406;2023-04-25T06:06:25;9.00;99.90
69901;DHT22;57183;50.930;5.406;2023-04-25T06:08:52;9.10;99.90
69901;DHT22;57183;50.930;5.406;2023-04-25T06:11:18;9.10;99.90
69901;DHT22;57183;50.930;5.406;2023-04-25T06:13:43;9.10;99.90
69901;DHT22;57183;50.930;5.406;2023-04-25T06:16:09;9.10;99.90
69901;DHT22;57183;50.930;5.406;2023-04-25T06:18:35;9.10;99.90
69901;DHT22;57183;50.930;5.406;2023-04-25T06:21:01;9.00;99.90
69901;DHT22;57183;50.930;5.406;2023-04-25T06:23:26;9.10;99.90
69901;DHT22;57183;50.930;5.406;2023-04-25T06:25:52;9.10;99.90
69901;DHT22;57183;50.930;5.406;2023-04-25T06:28:18;9.20;99.90
69901;DHT22;57183;50.930;5.406;2023-04-25T06:30:44;9.30;99.90
69901;DHT22;57183;50.930;5.406;2023-04-25T06:33:10;9.40;99.90
69901;DHT22;57183;50.930;5.406;2023-04-25T06:35:36;9.40;99.90
69901;DHT22;57183;50.930;5.406;2023-04-25T06:38:01;9.30;99.90
69901;DHT22;57183;50.930;5.406;2023-04-25T06:40:27;9.40;99.90
69901;DHT22;57183;50.930;5.406;2023-04-25T06:42:53;9.50;99.90
69901;DHT22;57183;50.930;5.406;2023-04-25T06:45:18;9.40;99.90
69901;DHT22;57183;50.930;5.406;2023-04-25T06:47:44;9.20;99.90
69901;DHT22;57183;50.930;5.406;2023-04-25T06:50:09;9.40;99.90
69901;DHT22;57183;50.930;5.406;2023-04-25T06:52:36;9.50;99.90
69901;DHT22;57183;50.930;5.406;2023-04-25T06:55:02;9.40;99.90
69901;DHT22;57183;50.930;5.406;2023-04-25T06:57:28;9.60;99.90
69901;DHT22;57183;50.930;5.406;2023-04-25T06:59:54;9.60;99.90
69901;DHT22;57183;50.930;5.406;2023-04-25T07:02:19;9.70;99.90
69901;DHT22;57183;50.930;5.406;2023-04-25T07:04:46;9.60;99.90
69901;DHT22;57183;50.930;5.406;2023-04-25T07:07:12;9.60;99.90
69901;DHT22;57183;50.930;5.406;2023-04-25T07:09:38;9.60;99.90
69901;DHT22;57183;50.930;5.406;2023-04-25T07:12:04;9.50;99.90
69901;DHT22;57183;50.930;5.406;2023-04-25T07:14:30;9.50;99.90
69901;DHT22;57183;50.930;5.406;2023-04-25T07:16:55;9.40;99.90
69901;DHT22;57183;50.930;5.406;2023-04-25T07:19:22;9.50;99.90
69901;DHT22;57183;50.930;5.406;2023-04-25T07:21:49;9.50;99.90
69901;DHT22;57183;50.930;5.406;2023-04-25T07:24:15;9.60;99.90
69901;DHT22;57183;50.930;5.406;2023-04-25T07:26:40;9.70;99.90
69901;DHT22;57183;50.930;5.406;2023-04-25T07:29:06;9.70;99.90
69901;DHT22;57183;50.930;5.406;2023-04-25T07:31:32;9.70;99.90
69901;DHT22;57183;50.930;5.406;2023-04-25T07:33:57;9.90;99.90
69901;DHT22;57183;50.930;5.406;2023-04-25T07:36:23;9.90;99.90
69901;DHT22;57183;50.930;5.406;2023-04-25T07:38:49;9.80;99.90
69901;DHT22;57183;50.930;5.406;2023-04-25T07:41:14;10.00;99.90
69901;DHT22;57183;50.930;5.406;2023-04-25T07:43:40;10.00;99.90
69901;DHT22;57183;50.930;5.406;2023-04-25T07:46:06;10.00;99.90
69901;DHT22;57183;50.930;5.406;2023-04-25T07:48:31;9.90;99.90
69901;DHT22;57183;50.930;5.406;2023-04-25T07:50:57;10.20;99.90
69901;DHT22;57183;50.930;5.406;2023-04-25T07:53:23;10.20;99.90
69901;DHT22;57183;50.930;5.406;2023-04-25T07:55:48;10.50;99.90
69901;DHT22;57183;50.930;5.406;2023-04-25T07:58:14;10.70;99.90
69901;DHT22;57183;50.930;5.406;2023-04-25T08:00:40;10.80;99.90
69901;DHT22;57183;50.930;5.406;2023-04-25T08:03:08;10.80;99.90
69901;DHT22;57183;50.930;5.406;2023-04-25T08:05:34;10.60;99.90
69901;DHT22;57183;50.930;5.406;2023-04-25T08:07:59;10.40;99.90
69901;DHT22;57183;50.930;5.406;2023-04-25T08:10:26;10.10;99.90
69901;DHT22;57183;50.930;5.406;2023-04-25T08:12:51;10.00;99.90
69901;DHT22;57183;50.930;5.406;2023-04-25T08:15:17;10.00;99.90
69901;DHT22;57183;50.930;5.406;2023-04-25T08:17:43;10.10;99.90
69901;DHT22;57183;50.930;5.406;2023-04-25T08:20:09;10.30;99.90
69901;DHT22;57183;50.930;5.406;2023-04-25T08:22:36;10.60;99.90
69901;DHT22;57183;50.930;5.406;2023-04-25T08:25:02;10.80;99.90
69901;DHT22;57183;50.930;5.406;2023-04-25T08:27:27;10.90;99.90
69901;DHT22;57183;50.930;5.406;2023-04-25T08:29:53;10.90;99.90
69901;DHT22;57183;50.930;5.406;2023-04-25T08:32:19;10.80;99.90
69901;DHT22;57183;50.930;5.406;2023-04-25T08:34:45;10.70;99.90
69901;DHT22;57183;50.930;5.406;2023-04-25T08:37:12;10.80;99.90
69901;DHT22;57183;50.930;5.406;2023-04-25T08:39:37;10.60;99.90
69901;DHT22;57183;50.930;5.406;2023-04-25T08:42:06;10.40;99.90
69901;DHT22;57183;50.930;5.406;2023-04-25T08:44:35;10.20;99.90
69901;DHT22;57183;50.930;5.406;2023-04-25T08:47:04;10.30;99.90
69901;DHT22;57183;50.930;5.406;2023-04-25T08:49:32;10.30;99.90
69901;DHT22;57183;50.930;5.406;2023-04-25T08:52:03;10.30;99.90
69901;DHT22;57183;50.930;5.406;2023-04-25T08:54:31;10.20;99.90
69901;DHT22;57183;50.930;5.406;2023-04-25T08:57:01;10.10;99.90
69901;DHT22;57183;50.930;5.406;2023-04-25T08:59:28;10.00;99.90
69901;DHT22;57183;50.930;5.406;2023-04-25T09:01:55;9.90;99.90
69901;DHT22;57183;50.930;5.406;2023-04-25T09:04:20;9.90;99.90
69901;DHT22;57183;50.930;5.406;2023-04-25T09:06:47;10.10;99.90
69901;DHT22;57183;50.930;5.406;2023-04-25T09:09:13;10.40;99.90
69901;DHT22;57183;50.930;5.406;2023-04-25T09:11:39;10.70;99.90
69901;DHT22;57183;50.930;5.406;2023-04-25T09:14:17;11.00;99.90
69901;DHT22;57183;50.930;5.406;2023-04-25T09:19:22;11.20;99.90
69901;DHT22;57183;50.930;5.406;2023-04-25T09:22:08;11.10;99.90
69901;DHT22;57183;50.930;5.406;2023-04-25T09:26:59;11.40;99.90
69901;DHT22;57183;50.930;5.406;2023-04-25T09:29:34;11.10;99.90
69901;DHT22;57183;50.930;5.406;2023-04-25T09:32:22;10.70;99.90
69901;DHT22;57183;50.930;5.406;2023-04-25T09:34:56;10.20;99.90
69901;DHT22;57183;50.930;5.406;2023-04-25T09:39:49;10.20;99.90
69901;DHT22;57183;50.930;5.406;2023-04-25T09:42:16;10.40;99.90
69901;DHT22;57183;50.930;5.406;2023-04-25T09:44:45;10.50;99.90
69901;DHT22;57183;50.930;5.406;2023-04-25T09:47:15;10.80;99.90
69901;DHT22;57183;50.930;5.406;2023-04-25T09:49:47;11.10;99.90
69901;DHT22;57183;50.930;5.406;2023-04-25T09:52:18;10.90;99.90
69901;DHT22;57183;50.930;5.406;2023-04-25T09:54:46;10.90;99.90
69901;DHT22;57183;50.930;5.406;2023-04-25T09:57:17;11.20;99.90
69901;DHT22;57183;50.930;5.406;2023-04-25T09:59:44;11.50;99.90
69901;DHT22;57183;50.930;5.406;2023-04-25T10:02:11;11.70;99.90
69901;DHT22;57183;50.930;5.406;2023-04-25T10:04:38;11.70;99.90
69901;DHT22;57183;50.930;5.406;2023-04-25T10:07:07;11.90;99.90
69901;DHT22;57183;50.930;5.406;2023-04-25T10:09:37;12.30;99.90
69901;DHT22;57183;50.930;5.406;2023-04-25T10:12:05;12.10;99.90
69901;DHT22;57183;50.930;5.406;2023-04-25T10:14:31;11.90;99.90
69901;DHT22;57183;50.930;5.406;2023-04-25T10:16:58;11.80;99.90
69901;DHT22;57183;50.930;5.406;2023-04-25T10:19:25;11.70;99.90
69901;DHT22;57183;50.930;5.406;2023-04-25T10:22:06;11.70;99.90
69901;DHT22;57183;50.930;5.406;2023-04-25T10:24:32;11.60;99.90
69901;DHT22;57183;50.930;5.406;2023-04-25T10:26:58;11.40;99.90
69901;DHT22;57183;50.930;5.406;2023-04-25T10:29:25;11.40;99.90
69901;DHT22;57183;50.930;5.406;2023-04-25T10:31:52;11.40;99.90
69901;DHT22;57183;50.930;5.406;2023-04-25T10:34:18;11.30;99.90
69901;DHT22;57183;50.930;5.406;2023-04-25T10:36:50;11.20;99.90
69901;DHT22;57183;50.930;5.406;2023-04-25T10:39:24;11.20;99.90
69901;DHT22;57183;50.930;5.406;2023-04-25T10:41:57;10.80;99.90
69901;DHT22;57183;50.930;5.406;2023-04-25T10:44:26;10.50;99.90
69901;DHT22;57183;50.930;5.406;2023-04-25T10:46:54;10.50;99.90
69901;DHT22;57183;50.930;5.406;2023-04-25T10:49:37;10.80;99.90
69901;DHT22;57183;50.930;5.406;2023-04-25T10:52:25;11.10;99.90
69901;DHT22;57183;50.930;5.406;2023-04-25T10:54:54;11.20;99.90
69901;DHT22;57183;50.930;5.406;2023-04-25T10:59:54;11.10;99.90
69901;DHT22;57183;50.930;5.406;2023-04-25T11:02:19;11.50;99.90
69901;DHT22;57183;50.930;5.406;2023-04-25T11:04:45;11.50;99.90
69901;DHT22;57183;50.930;5.406;2023-04-25T11:10:04;11.10;99.90
69901;DHT22;57183;50.930;5.406;2023-04-25T11:12:31;11.00;99.90
69901;DHT22;57183;50.930;5.406;2023-04-25T11:15:06;11.00;99.90
69901;DHT22;57183;50.930;5.406;2023-04-25T11:17:33;11.40;99.90
69901;DHT22;57183;50.930;5.406;2023-04-25T11:19:59;11.80;99.90
69901;DHT22;57183;50.930;5.406;2023-04-25T11:22:27;11.80;99.90
69901;DHT22;57183;50.930;5.406;2023-04-25T11:24:53;12.10;99.90
69901;DHT22;57183;50.930;5.406;2023-04-25T11:27:21;12.30;99.90
69901;DHT22;57183;50.930;5.406;2023-04-25T11:29:46;12.40;99.90
69901;DHT22;57183;50.930;5.406;2023-04-25T11:32:16;12.40;99.40
69901;DHT22;57183;50.930;5.406;2023-04-25T11:34:43;12.30;99.90
69901;DHT22;57183;50.930;5.406;2023-04-25T11:37:10;12.10;99.90
69901;DHT22;57183;50.930;5.406;2023-04-25T11:39:38;11.90;99.90
69901;DHT22;57183;50.930;5.406;2023-04-25T11:42:04;11.90;99.60
69901;DHT22;57183;50.930;5.406;2023-04-25T11:44:31;12.00;99.80
69901;DHT22;57183;50.930;5.406;2023-04-25T11:46:56;12.00;99.90
69901;DHT22;57183;50.930;5.406;2023-04-25T11:49:22;12.30;98.40
69901;DHT22;57183;50.930;5.406;2023-04-25T11:51:50;12.10;99.90
69901;DHT22;57183;50.930;5.406;2023-04-25T11:54:16;12.00;98.50
69901;DHT22;57183;50.930;5.406;2023-04-25T11:56:45;12.10;99.60
69901;DHT22;57183;50.930;5.406;2023-04-25T11:59:11;12.00;99.10
69901;DHT22;57183;50.930;5.406;2023-04-25T12:01:40;11.80;99.90
69901;DHT22;57183;50.930;5.406;2023-04-25T12:04:22;11.70;99.90
69901;DHT22;57183;50.930;5.406;2023-04-25T12:06:53;11.90;99.80
69901;DHT22;57183;50.930;5.406;2023-04-25T12:09:30;11.80;98.20
69901;DHT22;57183;50.930;5.406;2023-04-25T12:11:58;12.20;99.70
69901;DHT22;57183;50.930;5.406;2023-04-25T12:14:29;12.50;99.60
69901;DHT22;57183;50.930;5.406;2023-04-25T12:16:57;13.00;98.20
69901;DHT22;57183;50.930;5.406;2023-04-25T12:19:24;13.30;95.90
69901;DHT22;57183;50.930;5.406;2023-04-25T12:21:50;13.00;94.90
69901;DHT22;57183;50.930;5.406;2023-04-25T12:24:21;13.00;98.30
69901;DHT22;57183;50.930;5.406;2023-04-25T12:27:14;12.60;96.40
69901;DHT22;57183;50.930;5.406;2023-04-25T12:29:38;12.20;95.90
69901;DHT22;57183;50.930;5.406;2023-04-25T12:32:04;11.80;97.40
69901;DHT22;57183;50.930;5.406;2023-04-25T12:34:31;11.50;99.90
69901;DHT22;57183;50.930;5.406;2023-04-25T12:36:57;11.20;99.90
69901;DHT22;57183;50.930;5.406;2023-04-25T12:39:24;10.60;99.90
69901;DHT22;57183;50.930;5.406;2023-04-25T12:41:53;10.10;99.90
69901;DHT22;57183;50.930;5.406;2023-04-25T12:44:20;9.90;99.90
69901;DHT22;57183;50.930;5.406;2023-04-25T12:46:49;9.80;99.90
69901;DHT22;57183;50.930;5.406;2023-04-25T12:49:15;9.80;99.90
69901;DHT22;57183;50.930;5.406;2023-04-25T12:51:41;9.80;99.90
69901;DHT22;57183;50.930;5.406;2023-04-25T12:54:07;10.00;99.90
69901;DHT22;57183;50.930;5.406;2023-04-25T12:56:34;10.20;99.90
69901;DHT22;57183;50.930;5.406;2023-04-25T12:59:00;10.40;99.90
69901;DHT22;57183;50.930;5.406;2023-04-25T13:01:28;10.70;99.90
69901;DHT22;57183;50.930;5.406;2023-04-25T13:03:54;10.90;99.90
69901;DHT22;57183;50.930;5.406;2023-04-25T13:06:21;11.10;99.90
69901;DHT22;57183;50.930;5.406;2023-04-25T13:08:47;11.40;99.90
69901;DHT22;57183;50.930;5.406;2023-04-25T13:11:12;11.70;99.90
69901;DHT22;57183;50.930;5.406;2023-04-25T13:13:40;11.90;99.90
69901;DHT22;57183;50.930;5.406;2023-04-25T13:16:06;12.30;99.90
69901;DHT22;57183;50.930;5.406;2023-04-25T13:18:32;12.40;99.90
69901;DHT22;57183;50.930;5.406;2023-04-25T13:20:59;12.60;99.90
69901;DHT22;57183;50.930;5.406;2023-04-25T13:23:26;12.80;99.40
69901;DHT22;57183;50.930;5.406;2023-04-25T13:25:52;12.90;98.40
69901;DHT22;57183;50.930;5.406;2023-04-25T13:28:18;12.60;97.30
69901;DHT22;57183;50.930;5.406;2023-04-25T13:30:44;12.60;98.60
69901;DHT22;57183;50.930;5.406;2023-04-25T13:33:10;13.00;97.10
69901;DHT22;57183;50.930;5.406;2023-04-25T13:35:37;12.60;98.30
69901;DHT22;57183;50.930;5.406;2023-04-25T13:38:03;12.50;99.10
69901;DHT22;57183;50.930;5.406;2023-04-25T13:40:29;12.20;98.60
69901;DHT22;57183;50.930;5.406;2023-04-25T13:42:55;11.90;99.70
69901;DHT22;57183;50.930;5.406;2023-04-25T13:45:21;11.90;99.90
69901;DHT22;57183;50.930;5.406;2023-04-25T13:47:46;11.80;99.90
69901;DHT22;57183;50.930;5.406;2023-04-25T13:50:12;11.70;99.30
69901;DHT22;57183;50.930;5.406;2023-04-25T13:52:39;11.80;99.60
69901;DHT22;57183;50.930;5.406;2023-04-25T13:55:05;11.80;97.60
69901;DHT22;57183;50.930;5.406;2023-04-25T13:57:32;12.00;97.20
69901;DHT22;57183;50.930;5.406;2023-04-25T13:59:59;12.30;97.70
69901;DHT22;57183;50.930;5.406;2023-04-25T14:02:25;12.70;99.70
69901;DHT22;57183;50.930;5.406;2023-04-25T14:04:51;13.00;97.40
69901;DHT22;57183;50.930;5.406;2023-04-25T14:07:17;12.90;96.80
69901;DHT22;57183;50.930;5.406;2023-04-25T14:09:44;12.70;95.30
69901;DHT22;57183;50.930;5.406;2023-04-25T14:12:10;12.50;97.20
69901;DHT22;57183;50.930;5.406;2023-04-25T14:14:36;12.20;96.60
69901;DHT22;57183;50.930;5.406;2023-04-25T14:17:03;11.90;98.40
69901;DHT22;57183;50.930;5.406;2023-04-25T14:19:28;11.80;99.40
69901;DHT22;57183;50.930;5.406;2023-04-25T14:21:55;11.80;99.90
69901;DHT22;57183;50.930;5.406;2023-04-25T14:24:20;11.70;99.90
69901;DHT22;57183;50.930;5.406;2023-04-25T14:26:46;11.50;99.90
69901;DHT22;57183;50.930;5.406;2023-04-25T14:29:12;11.80;99.90
69901;DHT22;57183;50.930;5.406;2023-04-25T14:31:39;11.90;99.00
69901;DHT22;57183;50.930;5.406;2023-04-25T14:34:05;12.30;98.70
69901;DHT22;57183;50.930;5.406;2023-04-25T14:36:31;12.70;99.00
69901;DHT22;57183;50.930;5.406;2023-04-25T14:38:57;12.80;97.80
69901;DHT22;57183;50.930;5.406;2023-04-25T14:41:24;12.70;97.60
69901;DHT22;57183;50.930;5.406;2023-04-25T14:43:50;12.70;96.70
69901;DHT22;57183;50.930;5.406;2023-04-25T14:46:16;12.60;97.50
69901;DHT22;57183;50.930;5.406;2023-04-25T14:48:42;12.40;96.20
69901;DHT22;57183;50.930;5.406;2023-04-25T14:51:08;12.30;96.80
69901;DHT22;57183;50.930;5.406;2023-04-25T14:53:34;12.30;96.50
69901;DHT22;57183;50.930;5.406;2023-04-25T14:55:59;12.60;97.90
69901;DHT22;57183;50.930;5.406;2023-04-25T14:58:25;13.00;96.80
69901;DHT22;57183;50.930;5.406;2023-04-25T15:00:50;12.90;97.00
69901;DHT22;57183;50.930;5.406;2023-04-25T15:03:16;13.20;95.80
69901;DHT22;57183;50.930;5.406;2023-04-25T15:05:42;13.70;93.30
69901;DHT22;57183;50.930;5.406;2023-04-25T15:08:08;13.80;93.40
69901;DHT22;57183;50.930;5.406;2023-04-25T15:10:34;13.60;95.20
69901;DHT22;57183;50.930;5.406;2023-04-25T15:13:00;13.50;95.20
69901;DHT22;57183;50.930;5.406;2023-04-25T15:15:26;14.20;94.70
69901;DHT22;57183;50.930;5.406;2023-04-25T15:17:52;14.90;91.10
69901;DHT22;57183;50.930;5.406;2023-04-25T15:20:18;14.70;90.20
69901;DHT22;57183;50.930;5.406;2023-04-25T15:22:44;14.20;90.90
69901;DHT22;57183;50.930;5.406;2023-04-25T15:25:11;14.00;91.90
69901;DHT22;57183;50.930;5.406;2023-04-25T15:27:38;14.50;90.30
69901;DHT22;57183;50.930;5.406;2023-04-25T15:30:07;15.20;90.90
69901;DHT22;57183;50.930;5.406;2023-04-25T15:32:34;15.60;85.70
69901;DHT22;57183;50.930;5.406;2023-04-25T15:35:03;15.50;86.70
69901;DHT22;57183;50.930;5.406;2023-04-25T15:37:29;15.30;87.90
69901;DHT22;57183;50.930;5.406;2023-04-25T15:40:16;15.70;87.50
69901;DHT22;57183;50.930;5.406;2023-04-25T15:42:44;16.00;89.50
69901;DHT22;57183;50.930;5.406;2023-04-25T15:45:13;14.90;90.20
69901;DHT22;57183;50.930;5.406;2023-04-25T15:47:40;14.40;91.30